Time;durP1;ratioP1;P1;durP2;ratioP2;P2;SDS_P1;SDS_P2;PMS_P1;PMS_P2;Temp;Humidity;BMP_temperature;BMP_pressure;BME280_temperature;BME280_humidity;BME280_pressure;Samples;Min_cycle;Max_cycle;Signal;HPM_P1;HPM_P2
2022/09/25 00:01:23;;;;;;;1.58;0.30;;;22.40;58.50;;;;;;4978022;28;20133;-23
2022/09/25 00:03:49;;;;;;;0.30;0.30;;;22.40;58.50;;;;;;4982697;28;20129;-25
2022/09/25 00:06:20;;;;;;;0.25;0.25;;;22.40;58.50;;;;;;4977178;28;20146;-24
2022/09/25 00:08:46;;;;;;;0.30;0.30;;;22.40;58.60;;;;;;4978266;28;26466;-22
2022/09/25 00:11:26;;;;;;;0.52;0.20;;;22.40;58.50;;;;;;4981013;28;20038;-25
2022/09/25 00:13:52;;;;;;;0.20;0.20;;;22.40;58.40;;;;;;4980270;28;20042;-24
2022/09/25 00:16:20;;;;;;;0.30;0.30;;;22.40;58.40;;;;;;4975251;28;20039;-24
2022/09/25 00:21:30;;;;;;;0.43;0.43;;;22.40;58.40;;;;;;4959859;28;20217;-23
2022/09/25 00:23:59;;;;;;;0.20;0.20;;;22.40;58.50;;;;;;4977602;28;20035;-24
2022/09/25 00:26:26;;;;;;;0.75;0.40;;;22.30;58.50;;;;;;4986115;28;20116;-34
2022/09/25 00:28:52;;;;;;;0.35;0.20;;;22.30;58.40;;;;;;4985169;28;20046;-24
2022/09/25 00:31:18;;;;;;;0.30;0.30;;;22.40;58.40;;;;;;4982776;28;20096;-23
2022/09/25 00:33:44;;;;;;;0.20;0.20;;;22.40;58.60;;;;;;4984169;28;20042;-26
2022/09/25 00:36:09;;;;;;;0.15;0.15;;;22.30;58.70;;;;;;4984028;28;20573;-22
2022/09/25 00:38:36;;;;;;;0.28;0.28;;;22.30;58.80;;;;;;4980734;28;20050;-23
2022/09/25 00:41:02;;;;;;;0.30;0.30;;;22.40;58.60;;;;;;4986601;28;20046;-23
2022/09/25 00:43:34;;;;;;;0.90;0.20;;;22.40;58.30;;;;;;4984195;28;20050;-22
2022/09/25 00:46:00;;;;;;;0.22;0.22;;;22.30;58.60;;;;;;4980171;28;20471;-27
2022/09/25 00:48:26;;;;;;;0.90;0.20;;;22.30;58.50;;;;;;4966062;28;20141;-22
2022/09/25 00:50:53;;;;;;;0.20;0.20;;;22.40;58.40;;;;;;4980884;28;20178;-22
2022/09/25 00:53:21;;;;;;;0.40;0.32;;;22.40;58.30;;;;;;5003118;28;20053;-22
2022/09/25 00:55:46;;;;;;;0.20;0.20;;;22.40;58.20;;;;;;5011351;28;20047;-24
2022/09/25 00:58:13;;;;;;;0.30;0.20;;;22.40;58.10;;;;;;4979811;28;20566;-21
2022/09/25 01:00:39;;;;;;;0.38;0.20;;;22.40;58.20;;;;;;4985922;28;20046;-40
2022/09/25 01:03:05;;;;;;;0.40;0.20;;;22.40;58.20;;;;;;4979543;28;20054;-42
2022/09/25 01:05:32;;;;;;;0.35;0.30;;;22.40;58.10;;;;;;4997082;28;20057;-40
2022/09/25 01:07:59;;;;;;;0.20;0.20;;;22.40;58.80;;;;;;4988701;28;20100;-49
2022/09/25 01:10:24;;;;;;;0.13;0.10;;;22.40;58.30;;;;;;4981837;28;20058;-44
2022/09/25 01:12:50;;;;;;;0.20;0.20;;;22.40;58.20;;;;;;4983509;28;20500;-44
2022/09/25 01:15:18;;;;;;;0.43;0.30;;;22.40;58.20;;;;;;4980929;28;20133;-44
2022/09/25 01:17:50;;;;;;;0.13;0.13;;;22.40;58.10;;;;;;4993685;28;20121;-41
2022/09/25 01:20:41;;;;;;;1.50;0.40;;;22.40;58.10;;;;;;4998351;28;20417;-40
2022/09/25 01:23:29;;;;;;;0.20;0.20;;;22.40;58.10;;;;;;4984897;28;20043;-47
2022/09/25 01:26:18;;;;;;;0.30;0.30;;;22.50;58.20;;;;;;4987086;28;20115;-41
2022/09/25 01:29:08;;;;;;;0.17;0.17;;;22.50;58.10;;;;;;4967834;28;20046;-44
2022/09/25 01:31:46;;;;;;;0.10;0.10;;;22.40;58.10;;;;;;4979456;28;20039;-41
2022/09/25 01:35:00;;;;;;;0.20;0.20;;;22.50;58.20;;;;;;4982114;28;20504;-40
2022/09/25 01:37:35;;;;;;;0.10;0.10;;;22.50;58.10;;;;;;4976990;28;20109;-47
2022/09/25 01:40:07;;;;;;;0.40;0.32;;;22.40;58.00;;;;;;4980327;28;20042;-41
2022/09/25 01:42:50;;;;;;;0.22;0.20;;;22.40;58.10;;;;;;4959568;28;20104;-40
2022/09/25 01:45:51;;;;;;;0.10;0.10;;;22.50;58.10;;;;;;4978956;28;20042;-42
2022/09/25 01:48:18;;;;;;;0.13;0.13;;;22.50;58.00;;;;;;4950042;28;20081;-40
2022/09/25 01:50:55;;;;;;;0.30;0.20;;;22.40;58.10;;;;;;4966564;28;20051;-49
2022/09/25 01:53:22;;;;;;;0.20;0.20;;;22.40;58.10;;;;;;4962875;28;20031;-43
2022/09/25 01:55:57;;;;;;;0.13;0.10;;;22.40;58.10;;;;;;4969186;28;20050;-41
2022/09/25 01:58:38;;;;;;;0.10;0.10;;;22.40;58.10;;;;;;4964409;28;20202;-44
2022/09/25 02:01:05;;;;;;;0.20;0.20;;;22.40;58.10;;;;;;4963718;28;20046;-40
2022/09/25 02:03:37;;;;;;;0.20;0.17;;;22.40;58.10;;;;;;4950222;28;20050;-42
2022/09/25 02:06:04;;;;;;;0.20;0.20;;;22.40;58.20;;;;;;4962388;28;20555;-41
2022/09/25 02:08:39;;;;;;;0.17;0.17;;;22.40;58.20;;;;;;4979685;28;20066;-40
2022/09/25 02:11:05;;;;;;;0.43;0.20;;;22.30;58.30;;;;;;4965295;28;20488;-48
2022/09/25 02:13:50;;;;;;;0.50;0.20;;;22.40;58.30;;;;;;4982028;28;20034;-40
2022/09/25 02:16:18;;;;;;;0.17;0.17;;;22.30;58.10;;;;;;4980070;28;20495;-40
2022/09/25 02:21:56;;;;;;;0.30;0.30;;;22.40;58.10;;;;;;5004417;28;20073;-39
2022/09/25 02:24:33;;;;;;;0.30;0.20;;;22.40;58.20;;;;;;4982362;28;20053;-40
2022/09/25 02:26:58;;;;;;;0.35;0.30;;;22.30;58.10;;;;;;4983941;28;20038;-44
2022/09/25 02:29:24;;;;;;;0.47;0.17;;;22.40;58.20;;;;;;5010805;28;20814;-40
2022/09/25 02:32:02;;;;;;;0.20;0.15;;;22.30;58.10;;;;;;4977752;28;20451;-40
2022/09/25 02:34:28;;;;;;;0.20;0.20;;;22.30;58.10;;;;;;4980932;28;20452;-40
2022/09/25 02:36:54;;;;;;;0.20;0.10;;;22.30;58.20;;;;;;5011938;28;20085;-43
2022/09/25 02:39:21;;;;;;;0.32;0.20;;;22.30;58.20;;;;;;4981480;28;20034;-48
2022/09/25 02:42:02;;;;;;;0.15;0.15;;;22.30;58.30;;;;;;4982038;28;20042;-41
2022/09/25 02:44:50;;;;;;;0.10;0.10;;;22.30;58.20;;;;;;4980187;28;20026;-47
2022/09/25 02:47:33;;;;;;;0.20;0.20;;;22.30;58.20;;;;;;4982075;28;20238;-42
2022/09/25 02:50:33;;;;;;;0.47;0.30;;;22.30;58.30;;;;;;4984724;28;20435;-42
2022/09/25 02:53:28;;;;;;;0.10;0.10;;;22.30;58.30;;;;;;4983959;28;20145;-45
2022/09/25 02:55:58;;;;;;;0.10;0.10;;;22.30;58.20;;;;;;4944122;28;20528;-40
2022/09/25 02:58:32;;;;;;;0.30;0.10;;;22.30;58.30;;;;;;4925330;28;20043;-44
2022/09/25 03:00:58;;;;;;;0.15;0.10;;;22.30;58.30;;;;;;4939190;28;20167;-41
2022/09/25 03:03:24;;;;;;;0.70;0.20;;;22.30;58.30;;;;;;4939250;28;20090;-44
2022/09/25 03:05:50;;;;;;;0.20;0.20;;;22.30;58.30;;;;;;4926247;28;20070;-46
2022/09/25 03:11:00;;;;;;;0.10;0.10;;;22.20;58.30;;;;;;4943143;28;20045;-46
2022/09/25 03:13:30;;;;;;;0.17;0.10;;;22.20;58.30;;;;;;4942719;28;20400;-43
2022/09/25 03:15:58;;;;;;;0.90;0.30;;;22.20;58.40;;;;;;4943329;28;20082;-43
2022/09/25 03:18:24;;;;;;;0.17;0.10;;;22.20;59.00;;;;;;4941231;28;20038;-44
2022/09/25 03:20:50;;;;;;;0.28;0.20;;;22.20;58.30;;;;;;4941409;28;20043;-44
2022/09/25 03:23:16;;;;;;;0.20;0.20;;;22.20;58.40;;;;;;4941941;28;20149;-41
2022/09/25 03:25:42;;;;;;;0.30;0.28;;;22.20;58.40;;;;;;4943966;28;20043;-43
2022/09/25 03:28:10;;;;;;;2.50;0.40;;;22.20;58.40;;;;;;4941735;29;20607;-47
2022/09/25 03:30:39;;;;;;;0.10;0.10;;;22.20;58.40;;;;;;4941055;28;20051;-41
2022/09/25 03:33:15;;;;;;;0.30;0.13;;;22.20;58.40;;;;;;4961026;28;20117;-47
2022/09/25 03:35:41;;;;;;;0.73;0.20;;;22.30;58.50;;;;;;4981751;28;20050;-40
2022/09/25 03:38:07;;;;;;;0.68;0.30;;;22.20;58.40;;;;;;4986890;28;20034;-40
2022/09/25 03:40:33;;;;;;;0.20;0.20;;;22.20;58.40;;;;;;4977553;28;20046;-41
2022/09/25 03:42:58;;;;;;;0.20;0.20;;;22.20;58.40;;;;;;4980301;28;20046;-41
2022/09/25 03:45:24;;;;;;;0.57;0.28;;;22.20;58.50;;;;;;4978425;28;20046;-47
2022/09/25 03:47:50;;;;;;;0.20;0.20;;;22.20;58.60;;;;;;4982650;28;20532;-42
2022/09/25 03:50:15;;;;;;;0.15;0.15;;;22.20;59.00;;;;;;4984134;28;20171;-44
2022/09/25 03:52:41;;;;;;;0.20;0.10;;;22.20;58.50;;;;;;4981649;28;20471;-47
2022/09/25 03:55:06;;;;;;;0.10;0.10;;;22.20;58.60;;;;;;4977467;28;20050;-40
2022/09/25 03:57:32;;;;;;;0.20;0.10;;;22.20;58.50;;;;;;4982010;28;20035;-44
2022/09/25 04:00:00;;;;;;;0.10;0.10;;;22.20;58.50;;;;;;4981628;28;20407;-43
2022/09/25 04:02:27;;;;;;;0.20;0.20;;;22.20;58.50;;;;;;4988296;28;20042;-44
2022/09/25 04:04:53;;;;;;;0.20;0.20;;;22.20;58.60;;;;;;4984234;28;20042;-50
2022/09/25 04:07:20;;;;;;;0.10;0.10;;;22.20;58.60;;;;;;4985637;28;20157;-41
2022/09/25 04:09:45;;;;;;;0.10;0.10;;;22.20;58.70;;;;;;4982386;28;20061;-43
2022/09/25 04:12:11;;;;;;;0.13;0.13;;;22.20;58.60;;;;;;4981055;28;20046;-51
2022/09/25 04:14:37;;;;;;;0.20;0.20;;;22.20;58.70;;;;;;4984822;28;20042;-40
2022/09/25 04:17:03;;;;;;;0.10;0.10;;;22.20;58.70;;;;;;4986420;28;20530;-41
2022/09/25 04:19:29;;;;;;;0.20;0.10;;;22.20;58.60;;;;;;4981423;28;20069;-41
2022/09/25 04:21:54;;;;;;;0.43;0.17;;;22.20;58.60;;;;;;4982877;28;20055;-41
2022/09/25 04:27:04;;;;;;;0.10;0.10;;;22.20;58.70;;;;;;4980768;28;20053;-46
2022/09/25 04:29:31;;;;;;;0.20;0.13;;;22.10;58.90;;;;;;4986701;28;20030;-40
2022/09/25 04:34:40;;;;;;;0.10;0.10;;;22.20;58.70;;;;;;4979980;28;20049;-43
2022/09/25 04:37:06;;;;;;;0.20;0.13;;;22.20;59.40;;;;;;4981635;28;20084;-42
2022/09/25 04:39:31;;;;;;;0.30;0.20;;;22.20;59.30;;;;;;4981717;28;20038;-45
2022/09/25 04:41:57;;;;;;;0.98;0.20;;;22.10;58.70;;;;;;4982627;28;20104;-41
2022/09/25 04:44:22;;;;;;;0.10;0.10;;;22.10;58.60;;;;;;4982640;28;20062;-40
2022/09/25 04:46:48;;;;;;;0.38;0.28;;;22.10;58.70;;;;;;4984731;28;20050;-43
2022/09/25 04:49:14;;;;;;;0.20;0.20;;;22.20;58.70;;;;;;4982674;28;20046;-40
2022/09/25 04:51:39;;;;;;;0.10;0.10;;;22.10;58.70;;;;;;4982412;28;20572;-47
2022/09/25 04:54:05;;;;;;;0.32;0.10;;;22.20;58.80;;;;;;4981472;28;20503;-44
2022/09/25 04:56:30;;;;;;;0.10;0.10;;;22.10;58.70;;;;;;4983468;28;20054;-45
2022/09/25 04:58:56;;;;;;;0.10;0.10;;;22.10;58.80;;;;;;4985463;28;20042;-41
2022/09/25 05:01:21;;;;;;;0.20;0.10;;;22.10;58.80;;;;;;4979252;28;20055;-47
2022/09/25 05:03:48;;;;;;;0.10;0.10;;;22.10;58.90;;;;;;4982076;28;20527;-48
2022/09/25 05:06:14;;;;;;;0.20;0.20;;;22.10;59.00;;;;;;4986981;28;20100;-40
2022/09/25 05:08:40;;;;;;;0.13;0.10;;;22.10;59.00;;;;;;4981640;28;20518;-51
2022/09/25 05:11:06;;;;;;;0.20;0.20;;;22.10;59.00;;;;;;4989074;28;20514;-41
2022/09/25 05:13:32;;;;;;;0.20;0.20;;;22.10;59.00;;;;;;4982987;28;20784;-44
2022/09/25 05:15:57;;;;;;;0.10;0.10;;;22.10;59.00;;;;;;4983586;28;20463;-44
2022/09/25 05:18:23;;;;;;;0.73;0.20;;;22.10;59.00;;;;;;4983238;28;20100;-38
2022/09/25 05:20:49;;;;;;;0.40;0.17;;;22.10;59.10;;;;;;4984597;28;20125;-46
2022/09/25 05:23:15;;;;;;;0.10;0.10;;;22.10;59.00;;;;;;4984040;28;20038;-48
2022/09/25 05:25:40;;;;;;;0.20;0.20;;;22.20;59.10;;;;;;4982584;28;20074;-42
2022/09/25 05:28:06;;;;;;;0.95;0.20;;;22.10;59.10;;;;;;4986469;28;20077;-45
2022/09/25 05:30:32;;;;;;;0.28;0.20;;;22.10;59.10;;;;;;4980057;28;20389;-40
2022/09/25 05:32:58;;;;;;;0.28;0.10;;;22.10;59.10;;;;;;4985116;28;20049;-41
2022/09/25 05:35:25;;;;;;;0.10;0.10;;;22.10;59.80;;;;;;4982497;28;20092;-41
2022/09/25 05:37:51;;;;;;;0.20;0.20;;;22.10;59.00;;;;;;4983899;28;20062;-43
2022/09/25 05:40:17;;;;;;;0.28;0.20;;;22.10;59.20;;;;;;4982822;28;20104;-42
2022/09/25 05:42:43;;;;;;;0.20;0.20;;;22.10;59.20;;;;;;4979467;28;20046;-57
2022/09/25 05:45:12;;;;;;;0.10;0.10;;;22.10;59.10;;;;;;4983816;28;20030;-41
2022/09/25 05:47:40;;;;;;;0.30;0.15;;;22.10;59.10;;;;;;4979054;28;20046;-41
2022/09/25 05:50:08;;;;;;;0.05;0.00;;;22.00;59.20;;;;;;4983558;28;20082;-41
2022/09/25 05:52:34;;;;;;;0.65;0.13;;;22.10;59.30;;;;;;4985378;28;20061;-41
2022/09/25 05:54:59;;;;;;;0.55;0.38;;;22.10;59.20;;;;;;4981738;28;20038;-51
2022/09/25 05:57:26;;;;;;;0.30;0.20;;;22.10;59.50;;;;;;4980696;28;20518;-42
2022/09/25 05:59:52;;;;;;;0.10;0.10;;;22.00;59.90;;;;;;4984416;28;20031;-47
2022/09/25 06:02:17;;;;;;;0.20;0.20;;;22.10;59.30;;;;;;4983502;28;20507;-41
2022/09/25 06:04:43;;;;;;;0.10;0.10;;;22.00;59.40;;;;;;4977478;28;20464;-45
2022/09/25 06:07:08;;;;;;;0.10;0.10;;;22.00;59.50;;;;;;4965906;28;20085;-43
2022/09/25 06:09:34;;;;;;;0.10;0.10;;;22.00;59.40;;;;;;4972328;28;20038;-41
2022/09/25 06:12:01;;;;;;;0.10;0.10;;;22.00;59.40;;;;;;4985178;28;20038;-41
2022/09/25 06:14:26;;;;;;;0.20;0.20;;;22.00;59.40;;;;;;4984593;28;20085;-40
2022/09/25 06:16:52;;;;;;;0.17;0.17;;;22.10;59.30;;;;;;4983569;28;20034;-44
2022/09/25 06:19:17;;;;;;;0.10;0.10;;;22.00;59.50;;;;;;4981421;28;20155;-40
2022/09/25 06:21:43;;;;;;;0.75;0.20;;;22.00;59.50;;;;;;4975073;28;20101;-40
2022/09/25 06:24:12;;;;;;;0.10;0.10;;;22.00;59.50;;;;;;4980345;28;20063;-45
2022/09/25 06:26:38;;;;;;;0.40;0.15;;;22.00;59.40;;;;;;4978990;28;20030;-46
2022/09/25 06:29:05;;;;;;;0.15;0.10;;;22.00;59.50;;;;;;4984998;28;20057;-44
2022/09/25 06:31:31;;;;;;;0.30;0.10;;;22.00;59.50;;;;;;4982977;28;20051;-46
2022/09/25 06:33:57;;;;;;;0.10;0.10;;;22.00;59.50;;;;;;4982114;28;20050;-46
2022/09/25 06:36:22;;;;;;;0.30;0.20;;;22.00;59.40;;;;;;4288863;28;10000747;-46
2022/09/25 06:38:48;;;;;;;0.35;0.17;;;22.00;59.60;;;;;;4972477;28;20519;-46
2022/09/25 06:41:13;;;;;;;0.20;0.20;;;22.00;59.80;;;;;;4980037;28;20053;-40
2022/09/25 06:43:39;;;;;;;0.82;0.20;;;22.00;59.40;;;;;;4975664;28;20046;-40
2022/09/25 06:46:05;;;;;;;0.30;0.10;;;22.00;59.20;;;;;;4975020;28;20042;-40
2022/09/25 06:48:30;;;;;;;0.15;0.10;;;22.00;59.50;;;;;;4976441;28;20068;-40
2022/09/25 06:50:57;;;;;;;0.15;0.10;;;22.00;60.00;;;;;;4975589;28;20051;-51
2022/09/25 06:53:23;;;;;;;0.28;0.10;;;22.00;59.90;;;;;;4973921;28;20054;-43
2022/09/25 06:55:49;;;;;;;0.30;0.22;;;22.00;60.10;;;;;;4975156;28;20480;-42
2022/09/25 06:58:17;;;;;;;0.20;0.20;;;22.00;60.30;;;;;;4973564;28;20042;-46
2022/09/25 07:00:47;;;;;;;0.43;0.10;;;22.00;60.40;;;;;;5002778;28;20053;-42
2022/09/25 07:05:59;;;;;;;0.10;0.10;;;22.00;60.50;;;;;;4976974;28;20479;-44
2022/09/25 07:08:24;;;;;;;0.28;0.28;;;22.00;60.50;;;;;;4974556;28;20054;-45
2022/09/25 07:10:54;;;;;;;0.20;0.20;;;22.00;60.20;;;;;;4975876;28;20065;-44
2022/09/25 07:13:23;;;;;;;0.15;0.15;;;22.00;60.00;;;;;;4976369;28;20153;-45
2022/09/25 07:15:52;;;;;;;0.30;0.13;;;22.00;60.00;;;;;;4975243;28;20057;-45
2022/09/25 07:18:18;;;;;;;0.40;0.20;;;22.00;60.00;;;;;;4981203;28;20056;-45
2022/09/25 07:20:45;;;;;;;0.95;0.22;;;22.00;60.10;;;;;;4975846;28;20046;-43
2022/09/25 07:23:12;;;;;;;0.30;0.30;;;22.00;60.10;;;;;;4977852;28;20058;-44
2022/09/25 07:25:38;;;;;;;0.10;0.10;;;22.00;60.20;;;;;;4975087;28;20046;-49
2022/09/25 07:28:03;;;;;;;0.15;0.15;;;22.00;60.10;;;;;;4983464;28;20070;-49
2022/09/25 07:30:29;;;;;;;0.57;0.20;;;22.00;60.00;;;;;;4978355;28;20862;-47
2022/09/25 07:32:54;;;;;;;0.30;0.20;;;22.00;59.90;;;;;;4975887;28;20168;-41
2022/09/25 07:35:20;;;;;;;0.63;0.13;;;22.00;59.90;;;;;;4975351;28;20043;-47
2022/09/25 07:37:45;;;;;;;0.10;0.10;;;22.00;60.10;;;;;;4994257;28;20061;-53
2022/09/25 07:40:14;;;;;;;0.15;0.00;;;22.00;60.00;;;;;;4967068;28;20096;-46
2022/09/25 07:42:40;;;;;;;0.43;0.20;;;22.10;60.10;;;;;;4960269;28;20050;-42
2022/09/25 07:45:06;;;;;;;0.20;0.10;;;22.10;59.90;;;;;;4962781;28;20042;-42
2022/09/25 07:47:32;;;;;;;0.28;0.28;;;22.00;60.20;;;;;;4962965;28;20058;-43
2022/09/25 07:49:58;;;;;;;0.30;0.17;;;22.10;60.00;;;;;;4961654;28;20073;-47
2022/09/25 07:52:23;;;;;;;0.10;0.10;;;22.10;60.40;;;;;;4961022;28;20050;-49
2022/09/25 07:54:49;;;;;;;3.28;0.20;;;22.10;61.00;;;;;;4960566;28;20046;-46
2022/09/25 07:57:15;;;;;;;0.10;0.10;;;22.10;60.20;;;;;;4959603;28;20508;-42
2022/09/25 07:59:40;;;;;;;0.15;0.15;;;22.10;60.20;;;;;;4956541;28;20050;-47
2022/09/25 08:02:07;;;;;;;0.20;0.15;;;22.10;60.30;;;;;;4958973;28;20057;-43
2022/09/25 08:04:33;;;;;;;0.10;0.10;;;22.10;60.40;;;;;;4961089;28;20050;-48
2022/09/25 08:06:59;;;;;;;0.10;0.10;;;22.10;60.10;;;;;;4959684;28;20051;-43
2022/09/25 08:09:24;;;;;;;0.20;0.20;;;22.10;60.30;;;;;;4959825;28;20054;-42
2022/09/25 08:11:50;;;;;;;0.43;0.10;;;22.10;60.10;;;;;;4961236;28;20055;-41
2022/09/25 08:14:17;;;;;;;0.17;0.17;;;22.10;60.30;;;;;;4976066;28;20137;-43
2022/09/25 08:16:42;;;;;;;1.75;0.30;;;22.10;60.40;;;;;;4977504;28;20405;-43
2022/09/25 08:19:09;;;;;;;0.10;0.10;;;22.10;60.30;;;;;;4980021;28;20598;-43
2022/09/25 08:21:35;;;;;;;0.10;0.10;;;22.10;60.30;;;;;;5008401;28;20034;-45
2022/09/25 08:24:01;;;;;;;0.10;0.10;;;22.10;60.00;;;;;;4980667;28;20054;-42
2022/09/25 08:26:30;;;;;;;0.20;0.20;;;22.00;60.10;;;;;;4979567;28;20078;-41
2022/09/25 08:28:56;;;;;;;0.22;0.10;;;22.10;60.10;;;;;;4972328;28;20054;-48
2022/09/25 08:31:21;;;;;;;1.13;0.17;;;22.00;61.30;;;;;;4978480;28;20074;-45
2022/09/25 08:33:48;;;;;;;2.05;0.52;;;22.10;61.10;;;;;;4978622;28;20053;-56
2022/09/25 08:36:15;;;;;;;0.47;0.30;;;22.20;61.00;;;;;;4974263;28;20068;-45
2022/09/25 08:38:40;;;;;;;0.30;0.20;;;22.10;61.40;;;;;;4973762;28;21343;-42
2022/09/25 08:41:11;;;;;;;1.38;0.65;;;22.10;61.30;;;;;;4973213;28;20069;-42
2022/09/25 08:43:42;;;;;;;0.32;0.15;;;22.10;61.10;;;;;;4971111;28;20447;-42
2022/09/25 08:49:10;;;;;;;1.25;0.20;;;22.10;60.60;;;;;;4997179;28;20057;-43
2022/09/25 08:51:43;;;;;;;0.40;0.20;;;22.10;60.50;;;;;;4981908;28;20478;-42
2022/09/25 08:54:19;;;;;;;0.63;0.33;;;22.10;60.30;;;;;;4977679;28;20048;-48
2022/09/25 08:56:46;;;;;;;1.42;0.38;;;22.20;60.40;;;;;;4992921;28;20305;-42
2022/09/25 08:59:33;;;;;;;0.80;0.40;;;22.20;60.40;;;;;;4974991;28;20634;-46
2022/09/25 09:02:01;;;;;;;0.93;0.52;;;22.20;60.20;;;;;;4978822;28;20111;-47
2022/09/25 09:04:28;;;;;;;1.17;0.45;;;22.20;59.80;;;;;;4986757;28;20047;-43
2022/09/25 09:06:58;;;;;;;0.40;0.20;;;22.20;59.80;;;;;;4975261;28;20053;-41
2022/09/25 09:09:27;;;;;;;0.30;0.15;;;22.20;59.50;;;;;;4975923;28;20419;-47
2022/09/25 09:12:16;;;;;;;0.43;0.20;;;22.20;59.50;;;;;;4983921;28;20141;-41
2022/09/25 09:14:47;;;;;;;1.15;0.40;;;22.20;59.40;;;;;;4992186;28;20054;-41
2022/09/25 09:17:18;;;;;;;0.40;0.20;;;22.20;59.30;;;;;;4979405;28;20042;-42
2022/09/25 09:19:49;;;;;;;3.20;0.30;;;22.30;59.30;;;;;;4973273;28;20046;-45
2022/09/25 09:22:19;;;;;;;0.63;0.50;;;22.30;59.30;;;;;;4976839;28;20039;-42
2022/09/25 09:24:52;;;;;;;0.60;0.30;;;22.30;59.20;;;;;;4991823;28;20046;-42
2022/09/25 09:27:24;;;;;;;0.25;0.13;;;22.30;59.20;;;;;;4995714;28;20042;-42
2022/09/25 09:29:52;;;;;;;0.80;0.40;;;22.30;59.20;;;;;;4979958;28;20050;-42
2022/09/25 09:32:30;;;;;;;0.50;0.30;;;22.30;59.20;;;;;;4976524;28;20050;-40
2022/09/25 09:35:01;;;;;;;0.32;0.13;;;22.30;59.20;;;;;;4975226;28;20440;-47
2022/09/25 09:37:45;;;;;;;0.68;0.20;;;22.30;59.10;;;;;;4974503;28;20697;-42
2022/09/25 09:40:45;;;;;;;0.63;0.30;;;22.30;59.10;;;;;;4976444;28;20634;-44
2022/09/25 09:43:33;;;;;;;0.73;0.20;;;22.30;59.10;;;;;;4979364;28;20042;-43
2022/09/25 09:46:13;;;;;;;0.40;0.20;;;22.30;59.00;;;;;;4975537;28;20145;-41
2022/09/25 09:49:05;;;;;;;0.73;0.30;;;22.40;59.10;;;;;;4975910;28;20050;-46
2022/09/25 09:51:39;;;;;;;0.38;0.20;;;22.40;59.30;;;;;;4973175;28;20030;-50
2022/09/25 09:54:23;;;;;;;2.20;0.35;;;22.30;59.00;;;;;;4986211;28;20050;-42
2022/09/25 09:56:50;;;;;;;0.38;0.28;;;22.40;58.90;;;;;;4972302;28;20048;-45
2022/09/25 09:59:24;;;;;;;1.45;0.45;;;22.30;58.80;;;;;;4996953;28;20054;-42
2022/09/25 10:02:04;;;;;;;1.42;0.60;;;22.30;58.80;;;;;;5003697;28;20073;-44
2022/09/25 10:04:35;;;;;;;1.15;0.28;;;22.40;58.80;;;;;;4961325;28;20046;-42
2022/09/25 10:07:11;;;;;;;0.90;0.20;;;22.40;58.90;;;;;;4978387;28;20097;-42
2022/09/25 10:09:37;;;;;;;1.95;0.40;;;22.40;58.80;;;;;;4957551;28;20098;-46
2022/09/25 10:12:06;;;;;;;0.43;0.30;;;22.40;58.80;;;;;;4978722;28;21745;-46
2022/09/25 10:14:37;;;;;;;0.43;0.30;;;22.40;59.00;;;;;;4973232;28;20489;-56
2022/09/25 10:17:03;;;;;;;1.15;0.20;;;22.40;59.00;;;;;;4986272;28;20216;-50
2022/09/25 10:19:29;;;;;;;1.35;0.40;;;22.40;59.00;;;;;;4965859;28;20531;-54
2022/09/25 10:22:04;;;;;;;0.90;0.40;;;22.50;59.30;;;;;;4946440;28;20080;-49
2022/09/25 10:25:05;;;;;;;2.83;0.50;;;22.50;59.40;;;;;;4960607;28;20617;-58
2022/09/25 10:27:40;;;;;;;0.65;0.20;;;22.50;59.20;;;;;;4958132;28;20181;-51
2022/09/25 10:30:06;;;;;;;0.80;0.20;;;22.60;59.70;;;;;;4958736;28;20069;-48
2022/09/25 10:32:33;;;;;;;0.55;0.20;;;22.60;60.00;;;;;;4962563;28;20054;-45
2022/09/25 10:34:59;;;;;;;0.38;0.28;;;22.60;59.50;;;;;;4964140;28;20046;-52
2022/09/25 10:37:29;;;;;;;0.80;0.25;;;22.60;59.60;;;;;;4976293;28;20054;-49
2022/09/25 10:40:21;;;;;;;1.23;0.45;;;22.60;59.80;;;;;;4974643;28;20122;-45
2022/09/25 10:42:47;;;;;;;1.38;0.30;;;22.60;59.60;;;;;;4954290;28;20173;-43
2022/09/25 10:45:25;;;;;;;0.60;0.40;;;22.60;59.90;;;;;;4957510;28;20483;-44
2022/09/25 10:50:38;;;;;;;1.52;0.50;;;22.60;59.20;;;;;;4961405;28;20069;-49
2022/09/25 10:53:03;;;;;;;0.63;0.40;;;22.60;59.80;;;;;;4958578;28;20054;-45
2022/09/25 10:55:34;;;;;;;1.95;0.30;;;22.60;58.90;;;;;;4991845;28;20042;-51
2022/09/25 10:58:19;;;;;;;0.85;0.40;;;22.60;58.70;;;;;;4958620;28;20062;-46
2022/09/25 11:00:53;;;;;;;1.33;0.70;;;22.60;58.50;;;;;;4956865;28;20519;-47
2022/09/25 11:03:26;;;;;;;1.17;0.40;;;22.60;59.10;;;;;;4960624;28;20076;-44
2022/09/25 11:05:54;;;;;;;0.22;0.10;;;22.60;59.00;;;;;;4957624;28;20050;-50
2022/09/25 11:08:22;;;;;;;0.80;0.40;;;22.60;59.90;;;;;;4979269;28;20101;-47
2022/09/25 11:10:55;;;;;;;0.50;0.30;;;22.60;59.40;;;;;;4961208;28;20233;-45
2022/09/25 11:13:27;;;;;;;1.35;0.40;;;22.70;59.50;;;;;;4958451;28;20081;-44
2022/09/25 11:15:56;;;;;;;0.47;0.20;;;22.70;59.40;;;;;;4961285;28;20135;-46
2022/09/25 11:18:38;;;;;;;1.45;0.40;;;22.70;59.60;;;;;;4959137;28;20050;-43
2022/09/25 11:21:04;;;;;;;0.50;0.30;;;22.70;59.60;;;;;;4960521;28;20054;-44
2022/09/25 11:23:39;;;;;;;0.93;0.35;;;22.70;59.70;;;;;;4961418;28;20053;-43
2022/09/25 11:26:11;;;;;;;0.63;0.45;;;22.70;59.60;;;;;;4959367;28;20058;-45
2022/09/25 11:28:48;;;;;;;1.20;0.40;;;22.70;59.60;;;;;;4960832;28;20046;-46
2022/09/25 11:31:36;;;;;;;0.63;0.60;;;22.70;59.40;;;;;;4960812;28;20054;-45
2022/09/25 11:34:35;;;;;;;1.77;0.52;;;22.70;59.80;;;;;;4958329;28;20607;-42
2022/09/25 11:37:03;;;;;;;0.45;0.40;;;22.70;59.10;;;;;;4959905;28;20069;-45
2022/09/25 11:42:47;;;;;;;1.17;0.52;;;22.70;59.60;;;;;;4963067;28;20061;-53
2022/09/25 11:45:35;;;;;;;2.05;0.40;;;22.70;59.10;;;;;;4987684;28;20178;-62
2022/09/25 11:48:28;;;;;;;1.30;0.63;;;22.80;58.80;;;;;;4944933;28;20625;-57
2022/09/25 11:51:34;;;;;;;0.40;0.20;;;22.80;59.00;;;;;;4962014;28;20046;-63
2022/09/25 11:54:28;;;;;;;0.80;0.35;;;22.70;59.00;;;;;;4977543;28;20054;-59
2022/09/25 11:56:58;;;;;;;1.05;0.45;;;22.80;58.40;;;;;;4962701;28;20054;-53
2022/09/25 12:00:05;;;;;;;0.60;0.50;;;22.80;58.40;;;;;;4960895;28;20042;-52
2022/09/25 12:02:39;;;;;;;2.83;0.38;;;22.80;58.30;;;;;;4963274;28;20820;-54
2022/09/25 12:05:22;;;;;;;2.17;0.50;;;22.90;58.70;;;;;;4963452;28;20061;-57
2022/09/25 12:08:03;;;;;;;0.55;0.30;;;22.80;58.00;;;;;;4964074;28;20053;-61
2022/09/25 12:10:50;;;;;;;0.57;0.30;;;22.80;58.60;;;;;;4616610;28;9999880;-55
2022/09/25 12:13:32;;;;;;;0.47;0.30;;;22.80;58.30;;;;;;4960126;28;20065;-56
2022/09/25 12:16:19;;;;;;;0.88;0.20;;;22.80;58.00;;;;;;4989219;28;20681;-59
2022/09/25 12:19:01;;;;;;;0.45;0.25;;;22.80;58.50;;;;;;4959130;28;20072;-58
2022/09/25 12:21:40;;;;;;;0.47;0.28;;;22.80;59.10;;;;;;4965501;28;20046;-51
2022/09/25 12:24:27;;;;;;;2.25;0.50;;;22.80;58.20;;;;;;4962572;28;20430;-60
2022/09/25 12:27:13;;;;;;;0.73;0.40;;;22.80;58.00;;;;;;4962627;28;20362;-55
2022/09/25 12:29:50;;;;;;;1.10;0.30;;;22.90;58.60;;;;;;4960702;28;20419;-52
2022/09/25 12:32:22;;;;;;;1.45;0.50;;;22.90;58.00;;;;;;4947796;28;20065;-53
2022/09/25 12:35:09;;;;;;;0.80;0.57;;;22.90;58.30;;;;;;4960926;28;20074;-45
2022/09/25 12:37:46;;;;;;;1.13;0.40;;;22.90;58.00;;;;;;4959604;28;20078;-60
2022/09/25 12:40:37;;;;;;;0.70;0.30;;;22.90;58.20;;;;;;4940638;28;20648;-53
2022/09/25 12:43:26;;;;;;;3.03;0.45;;;22.90;58.20;;;;;;4965247;28;21382;-64
2022/09/25 12:46:08;;;;;;;11.07;0.63;;;22.90;58.40;;;;;;4963979;28;20093;-55
2022/09/25 12:48:49;;;;;;;1.63;0.30;;;22.90;58.20;;;;;;4965655;28;20116;-53
2022/09/25 12:51:40;;;;;;;1.08;0.30;;;22.90;58.70;;;;;;4961528;28;20117;-47
2022/09/25 12:54:28;;;;;;;0.43;0.30;;;22.90;58.70;;;;;;4944644;28;20062;-59
2022/09/25 12:56:59;;;;;;;1.60;0.30;;;22.90;58.70;;;;;;4963016;28;20164;-60
2022/09/25 12:59:34;;;;;;;0.75;0.20;;;22.90;58.80;;;;;;4969107;28;20516;-55
2022/09/25 13:02:11;;;;;;;0.68;0.20;;;22.90;58.90;;;;;;4970504;28;20053;-27
2022/09/25 13:04:41;;;;;;;0.38;0.20;;;22.90;58.40;;;;;;4966009;28;20405;-28
2022/09/25 13:07:42;;;;;;;0.73;0.30;;;22.90;58.70;;;;;;4965962;28;20522;-25
2022/09/25 13:10:42;;;;;;;0.32;0.30;;;22.90;58.70;;;;;;4966598;28;20058;-24
2022/09/25 13:13:11;;;;;;;1.15;0.28;;;22.90;58.50;;;;;;4969029;28;20057;-24
2022/09/25 13:15:38;;;;;;;1.60;0.40;;;22.90;58.80;;;;;;4948986;28;20046;-26
2022/09/25 13:18:05;;;;;;;1.63;0.30;;;23.00;58.90;;;;;;4951097;28;20046;-27
2022/09/25 13:20:35;;;;;;;2.47;0.50;;;22.90;58.70;;;;;;4967535;28;20045;-27
2022/09/25 13:23:30;;;;;;;0.65;0.30;;;22.90;58.40;;;;;;4969529;28;20074;-27
2022/09/25 13:26:01;;;;;;;2.15;0.35;;;22.90;58.70;;;;;;4966642;28;20044;-28
2022/09/25 13:29:01;;;;;;;0.55;0.15;;;22.90;58.50;;;;;;4966977;28;20411;-23
2022/09/25 13:31:30;;;;;;;0.15;0.15;;;22.90;58.80;;;;;;4955598;28;20042;-26
2022/09/25 13:33:59;;;;;;;3.63;0.20;;;22.90;58.70;;;;;;4949973;28;20042;-24